createdAt,value
2023-05-19T00:00:59.127Z,10.10
2023-05-19T00:02:05.702Z,10.09
2023-05-19T00:03:09.245Z,10.07
2023-05-19T00:04:15.311Z,10.06
2023-05-19T00:05:18.623Z,10.05
2023-05-19T00:06:23.071Z,10.04
2023-05-19T00:07:29.927Z,10.02
2023-05-19T00:08:34.060Z,10.01
2023-05-19T00:09:37.226Z,9.99
2023-05-19T00:10:40.116Z,9.98
2023-05-19T00:11:43.183Z,9.95
2023-05-19T00:12:46.089Z,9.94
2023-05-19T00:13:49.728Z,9.92
2023-05-19T00:14:52.598Z,9.90
2023-05-19T00:15:55.619Z,9.88
2023-05-19T00:16:58.859Z,9.87
2023-05-19T00:18:02.076Z,9.85
2023-05-19T00:19:05.809Z,9.84
2023-05-19T00:20:08.877Z,9.83
2023-05-19T00:21:11.904Z,9.81
2023-05-19T00:22:14.766Z,9.79
2023-05-19T00:23:17.596Z,9.77
2023-05-19T00:24:20.312Z,9.75
2023-05-19T00:25:23.109Z,9.73
2023-05-19T00:26:27.275Z,9.72
2023-05-19T00:27:36.755Z,9.71
2023-05-19T00:28:39.520Z,9.69
2023-05-19T00:29:42.275Z,9.68
2023-05-19T00:30:45.015Z,9.67
2023-05-19T00:31:47.805Z,9.66
2023-05-19T00:32:51.183Z,9.65
2023-05-19T00:33:54.205Z,9.64
2023-05-19T00:34:56.986Z,9.62
2023-05-19T00:36:02.950Z,9.60
2023-05-19T00:37:05.801Z,9.58
2023-05-19T00:38:08.591Z,9.57
2023-05-19T00:39:11.338Z,9.54
2023-05-19T00:40:14.322Z,9.54
2023-05-19T00:41:17.539Z,9.52
2023-05-19T00:42:21.102Z,9.51
2023-05-19T00:43:23.850Z,9.50
2023-05-19T00:44:26.835Z,9.49
2023-05-19T00:45:29.565Z,9.49
2023-05-19T00:46:32.366Z,9.48
2023-05-19T00:47:35.222Z,9.47
2023-05-19T00:48:38.063Z,9.46
2023-05-19T00:49:41.044Z,9.46
2023-05-19T00:50:44.414Z,9.45
2023-05-19T00:51:47.423Z,9.44
2023-05-19T00:52:51.300Z,9.44
2023-05-19T00:53:54.269Z,9.43
2023-05-19T00:54:57.127Z,9.43
2023-05-19T00:55:59.990Z,9.43
2023-05-19T00:57:04.253Z,9.42
2023-05-19T00:58:07.926Z,9.42
2023-05-19T00:59:10.664Z,9.42
2023-05-19T01:00:14.070Z,9.42
2023-05-19T01:01:17.646Z,9.41
2023-05-19T01:02:21.628Z,9.41
2023-05-19T01:03:25.312Z,9.40
2023-05-19T01:04:29.775Z,9.41
2023-05-19T01:05:32.715Z,9.40
2023-05-19T01:06:37.987Z,9.40
2023-05-19T01:07:41.799Z,9.39
2023-05-19T01:08:44.827Z,9.39
2023-05-19T01:09:48.755Z,9.38
2023-05-19T01:10:51.648Z,9.38
2023-05-19T01:11:54.595Z,9.37
2023-05-19T01:12:57.366Z,9.36
2023-05-19T01:14:00.351Z,9.35
2023-05-19T01:15:04.071Z,9.34
2023-05-19T01:16:12.642Z,9.33
2023-05-19T01:17:27.694Z,9.32
2023-05-19T01:18:44.441Z,9.32
2023-05-19T01:20:06.699Z,9.31
2023-05-19T01:21:28.668Z,9.30
2023-05-19T01:22:32.102Z,9.30
2023-05-19T01:23:52.011Z,9.31
2023-05-19T01:25:13.309Z,9.31
2023-05-19T01:26:42.647Z,9.31
2023-05-19T01:27:54.470Z,9.30
2023-05-19T01:29:32.761Z,9.31
2023-05-19T01:32:05.051Z,9.30
2023-05-19T01:33:09.479Z,9.29
2023-05-19T01:34:13.301Z,9.29
2023-05-19T01:35:16.775Z,9.28
2023-05-19T01:36:20.445Z,9.28
2023-05-19T01:37:23.874Z,9.28
2023-05-19T01:38:28.450Z,9.28
2023-05-19T01:39:31.918Z,9.28
2023-05-19T01:40:35.054Z,9.27
2023-05-19T01:41:38.523Z,9.28
2023-05-19T01:42:42.103Z,9.28
2023-05-19T01:43:45.635Z,9.28
2023-05-19T01:44:48.708Z,9.28
2023-05-19T01:45:52.119Z,9.28
2023-05-19T01:46:55.074Z,9.27
2023-05-19T01:47:59.174Z,9.26
2023-05-19T01:49:02.182Z,9.25
2023-05-19T01:50:05.079Z,9.24
2023-05-19T01:51:07.766Z,9.24
2023-05-19T01:52:11.292Z,9.24
2023-05-19T01:53:14.832Z,9.22
2023-05-19T01:54:17.552Z,9.21
2023-05-19T01:55:22.849Z,9.21
2023-05-19T01:56:46.585Z,9.21
2023-05-19T01:58:07.985Z,9.20
2023-05-19T01:59:24.169Z,9.21
2023-05-19T02:00:46.076Z,9.21
2023-05-19T02:01:53.703Z,9.21
2023-05-19T02:03:11.893Z,9.20
2023-05-19T02:04:21.620Z,9.21
2023-05-19T02:05:33.600Z,9.20
2023-05-19T02:06:36.287Z,9.20
2023-05-19T02:07:45.147Z,9.20
2023-05-19T02:08:50.580Z,9.20
2023-05-19T02:10:02.751Z,9.20
2023-05-19T02:11:14.630Z,9.19
2023-05-19T02:12:23.381Z,9.19
2023-05-19T02:13:29.957Z,9.19
2023-05-19T02:14:39.723Z,9.18
2023-05-19T02:15:43.862Z,9.17
2023-05-19T02:16:47.957Z,9.17
2023-05-19T02:17:52.182Z,9.17
2023-05-19T02:18:55.417Z,9.17
2023-05-19T02:19:58.180Z,9.17
2023-05-19T02:21:01.701Z,9.16
2023-05-19T02:22:04.632Z,9.16
2023-05-19T02:23:07.332Z,9.16
2023-05-19T02:24:10.959Z,9.16
2023-05-19T02:25:14.292Z,9.17
2023-05-19T02:26:17.304Z,9.16
2023-05-19T02:27:20.017Z,9.16
2023-05-19T02:28:23.095Z,9.16
2023-05-19T02:29:26.037Z,9.16
2023-05-19T02:30:28.825Z,9.16
2023-05-19T02:31:31.560Z,9.17
2023-05-19T02:32:34.701Z,9.17
2023-05-19T02:33:37.714Z,9.17
2023-05-19T02:34:42.252Z,9.18
2023-05-19T02:35:45.001Z,9.18
2023-05-19T02:36:49.954Z,9.19
2023-05-19T02:37:52.828Z,9.19
2023-05-19T02:38:55.977Z,9.20
2023-05-19T02:39:58.674Z,9.21
2023-05-19T02:41:01.482Z,9.22
2023-05-19T02:42:04.311Z,9.22
2023-05-19T02:43:08.084Z,9.23
2023-05-19T02:44:10.866Z,9.24
2023-05-19T02:45:14.339Z,9.26
2023-05-19T02:46:17.198Z,9.26
2023-05-19T02:47:20.127Z,9.27
2023-05-19T02:48:22.882Z,9.27
2023-05-19T02:49:26.224Z,9.28
2023-05-19T02:50:30.486Z,9.29
2023-05-19T02:51:33.288Z,9.30
2023-05-19T02:52:36.214Z,9.31
2023-05-19T02:53:38.947Z,9.33
2023-05-19T02:54:41.682Z,9.33
2023-05-19T02:55:44.412Z,9.35
2023-05-19T02:56:47.287Z,9.36
2023-05-19T02:57:50.548Z,9.38
2023-05-19T02:58:53.344Z,9.39
2023-05-19T02:59:56.560Z,9.42
2023-05-19T03:00:59.305Z,9.44
2023-05-19T03:02:03.034Z,9.47
2023-05-19T03:03:05.891Z,9.48
2023-05-19T03:04:08.757Z,9.50
2023-05-19T03:05:11.677Z,9.53
2023-05-19T03:06:15.613Z,9.55
2023-05-19T03:07:18.451Z,9.57
2023-05-19T03:08:21.177Z,9.60
2023-05-19T03:09:23.976Z,9.62
2023-05-19T03:10:26.853Z,9.64
2023-05-19T03:11:30.998Z,9.66
2023-05-19T03:12:33.846Z,9.68
2023-05-19T03:13:36.700Z,9.69
2023-05-19T03:14:39.500Z,9.72
2023-05-19T03:15:42.625Z,9.74
2023-05-19T03:16:45.792Z,9.75
2023-05-19T03:17:48.833Z,9.77
2023-05-19T03:18:52.359Z,9.80
2023-05-19T03:19:55.109Z,9.82
2023-05-19T03:20:57.969Z,9.84
2023-05-19T03:22:00.777Z,9.87
2023-05-19T03:23:03.601Z,9.90
2023-05-19T03:24:06.752Z,9.92
2023-05-19T03:25:10.257Z,9.94
2023-05-19T03:26:13.688Z,9.95
2023-05-19T03:27:16.620Z,9.96
2023-05-19T03:28:20.033Z,9.97
2023-05-19T03:29:22.868Z,9.98
2023-05-19T03:30:27.083Z,10.01
2023-05-19T03:31:53.585Z,10.05
2023-05-19T03:32:56.467Z,10.09
2023-05-19T03:33:59.464Z,10.12
2023-05-19T03:35:02.205Z,10.16
2023-05-19T03:36:05.371Z,10.19
2023-05-19T03:37:10.955Z,10.21
2023-05-19T03:38:15.515Z,10.24
2023-05-19T03:39:25.169Z,10.28
2023-05-19T03:40:28.089Z,10.31
2023-05-19T03:41:36.686Z,10.31
2023-05-19T03:42:39.864Z,10.31
2023-05-19T03:43:42.745Z,10.31
2023-05-19T03:44:46.364Z,10.33
2023-05-19T03:45:49.460Z,10.36
2023-05-19T03:47:21.492Z,10.39
2023-05-19T03:48:36.938Z,10.42
2023-05-19T03:50:03.254Z,10.44
2023-05-19T03:51:38.318Z,10.46
2023-05-19T03:52:53.710Z,10.44
2023-05-19T03:54:04.631Z,10.43
2023-05-19T03:55:07.829Z,10.44
2023-05-19T03:56:13.656Z,10.47
2023-05-19T03:57:16.686Z,10.48
2023-05-19T03:58:19.492Z,10.50
2023-05-19T03:59:23.689Z,10.52
2023-05-19T04:00:26.623Z,10.53
2023-05-19T04:01:29.495Z,10.56
2023-05-19T04:02:33.977Z,10.60
2023-05-19T04:03:36.991Z,10.62
2023-05-19T04:04:39.928Z,10.63
2023-05-19T04:05:42.829Z,10.65
2023-05-19T04:06:45.716Z,10.70
2023-05-19T04:07:48.501Z,10.71
2023-05-19T04:08:51.255Z,10.71
2023-05-19T04:09:54.339Z,10.73
2023-05-19T04:10:57.080Z,10.75
2023-05-19T04:12:00.059Z,10.77
2023-05-19T04:13:02.883Z,10.78
2023-05-19T04:14:06.026Z,10.82
2023-05-19T04:15:11.524Z,10.83
2023-05-19T04:16:14.642Z,10.86
2023-05-19T04:17:17.566Z,10.88
2023-05-19T04:18:20.658Z,10.91
2023-05-19T04:19:23.576Z,10.95
2023-05-19T04:20:26.497Z,10.97
2023-05-19T04:21:29.194Z,10.99
2023-05-19T04:22:32.168Z,11.03
2023-05-19T04:23:34.929Z,11.08
2023-05-19T04:24:37.907Z,11.09
2023-05-19T04:25:41.939Z,11.13
2023-05-19T04:26:47.169Z,11.16
2023-05-19T04:27:53.025Z,11.20
2023-05-19T04:28:56.622Z,11.24
2023-05-19T04:29:59.571Z,11.26
2023-05-19T04:31:03.588Z,11.29
2023-05-19T04:32:06.801Z,11.31
2023-05-19T04:33:10.125Z,11.32
2023-05-19T04:34:13.239Z,11.36
2023-05-19T04:35:17.840Z,11.42
2023-05-19T04:36:21.843Z,11.47
2023-05-19T04:37:26.723Z,11.52
2023-05-19T04:38:30.108Z,11.55
2023-05-19T04:39:33.404Z,11.59
2023-05-19T04:40:37.164Z,11.62
2023-05-19T04:41:40.595Z,11.67
2023-05-19T04:42:46.184Z,11.73
2023-05-19T04:43:50.259Z,11.79
2023-05-19T04:44:54.147Z,11.83
2023-05-19T04:45:58.279Z,11.85
2023-05-19T04:47:01.729Z,11.89
2023-05-19T04:48:05.140Z,11.95
2023-05-19T04:49:08.111Z,12.01
2023-05-19T04:50:11.458Z,12.05
2023-05-19T04:51:17.742Z,12.10
2023-05-19T04:52:22.763Z,12.14
2023-05-19T04:53:26.560Z,12.19
2023-05-19T04:54:29.390Z,12.19
2023-05-19T04:55:33.082Z,12.23
2023-05-19T04:56:36.713Z,12.27
2023-05-19T04:57:40.547Z,12.31
2023-05-19T04:58:44.937Z,12.36
2023-05-19T04:59:48.000Z,12.41
2023-05-19T05:00:51.629Z,12.43
2023-05-19T05:01:55.676Z,12.45
2023-05-19T05:03:00.105Z,12.48
2023-05-19T05:04:04.913Z,12.50
2023-05-19T05:05:08.312Z,12.54
2023-05-19T05:06:11.840Z,12.56
2023-05-19T05:07:14.653Z,12.54
2023-05-19T05:08:23.155Z,12.56
2023-05-19T05:09:26.105Z,12.56
2023-05-19T05:10:29.386Z,12.54
2023-05-19T05:11:32.416Z,12.52
2023-05-19T05:12:36.959Z,12.53
2023-05-19T05:13:40.301Z,12.54
2023-05-19T05:14:43.214Z,12.56
2023-05-19T05:15:46.549Z,12.58
2023-05-19T05:16:50.016Z,12.60
2023-05-19T05:17:57.048Z,12.62
2023-05-19T05:19:01.257Z,12.65
2023-05-19T05:20:06.336Z,12.68
2023-05-19T05:21:09.272Z,12.72
2023-05-19T05:22:12.305Z,12.75
2023-05-19T05:23:16.749Z,12.78
2023-05-19T05:24:21.082Z,12.79
2023-05-19T05:25:28.921Z,12.82
2023-05-19T05:26:33.686Z,12.87
2023-05-19T05:27:36.884Z,12.90
2023-05-19T05:28:41.462Z,12.90
2023-05-19T05:29:44.374Z,12.91
2023-05-19T05:30:47.177Z,12.92
2023-05-19T05:31:50.528Z,12.91
2023-05-19T05:32:53.408Z,12.94
2023-05-19T05:34:15.002Z,12.93
2023-05-19T05:35:18.726Z,12.96
2023-05-19T05:36:21.587Z,12.99
2023-05-19T05:37:24.419Z,13.02
2023-05-19T05:38:27.904Z,13.05
2023-05-19T05:39:31.904Z,13.07
2023-05-19T05:40:35.734Z,13.12
2023-05-19T05:41:38.803Z,13.17
2023-05-19T05:42:46.463Z,13.21
2023-05-19T05:43:49.575Z,13.22
2023-05-19T05:44:52.400Z,13.24
2023-05-19T05:45:55.477Z,13.27
2023-05-19T05:46:58.384Z,13.29
2023-05-19T05:48:01.449Z,13.31
2023-05-19T05:49:04.667Z,13.33
2023-05-19T05:50:09.094Z,13.35
2023-05-19T05:51:12.320Z,13.33
2023-05-19T05:52:15.327Z,13.35
2023-05-19T05:53:22.120Z,13.34
2023-05-19T05:54:26.694Z,13.37
2023-05-19T05:55:29.864Z,13.40
2023-05-19T05:56:37.217Z,13.42
2023-05-19T05:57:44.156Z,13.47
2023-05-19T05:58:47.078Z,13.51
2023-05-19T05:59:50.864Z,13.51
2023-05-19T06:00:57.715Z,13.54
2023-05-19T06:02:01.712Z,13.57
2023-05-19T06:03:05.991Z,13.59
2023-05-19T06:04:08.892Z,13.61
2023-05-19T06:05:12.697Z,13.59
2023-05-19T06:06:16.419Z,13.59
2023-05-19T06:07:19.146Z,13.62
2023-05-19T06:08:22.080Z,13.61
2023-05-19T06:09:25.028Z,13.64
2023-05-19T06:10:28.533Z,13.68
2023-05-19T06:11:32.242Z,13.70
2023-05-19T06:12:35.402Z,13.74
2023-05-19T06:13:38.840Z,13.77
2023-05-19T06:14:43.015Z,13.78
2023-05-19T06:16:06.233Z,13.80
2023-05-19T06:17:15.252Z,13.84
2023-05-19T06:18:18.305Z,13.88
2023-05-19T06:19:25.438Z,13.89
2023-05-19T06:20:28.656Z,13.94
2023-05-19T06:21:32.379Z,13.99
2023-05-19T06:22:35.357Z,14.04
2023-05-19T06:23:38.585Z,14.09
2023-05-19T06:24:41.676Z,14.16
2023-05-19T06:25:45.206Z,14.21
2023-05-19T06:26:48.364Z,14.27
2023-05-19T06:27:52.459Z,14.34
2023-05-19T06:28:56.465Z,14.39
2023-05-19T06:29:59.985Z,14.43
2023-05-19T06:31:03.404Z,14.45
2023-05-19T06:32:22.565Z,14.45
2023-05-19T06:33:28.216Z,14.40
2023-05-19T06:34:32.796Z,14.40
2023-05-19T06:35:35.713Z,14.39
2023-05-19T06:36:38.728Z,14.40
2023-05-19T06:37:41.539Z,14.41
2023-05-19T06:38:44.377Z,14.41
2023-05-19T06:39:47.850Z,14.40
2023-05-19T06:40:50.791Z,14.40
2023-05-19T06:41:54.420Z,14.40
2023-05-19T06:43:16.692Z,14.38
2023-05-19T06:44:30.272Z,14.39
2023-05-19T06:45:33.276Z,14.35
2023-05-19T06:46:37.220Z,14.32
2023-05-19T06:47:44.612Z,14.33
2023-05-19T06:48:47.791Z,14.37
2023-05-19T06:49:55.183Z,14.41
2023-05-19T06:51:00.002Z,14.39
2023-05-19T06:52:03.157Z,14.44
2023-05-19T06:53:06.275Z,14.45
2023-05-19T06:54:11.195Z,14.47
2023-05-19T06:55:14.053Z,14.48
2023-05-19T06:56:18.599Z,14.51
2023-05-19T06:57:21.652Z,14.55
2023-05-19T06:58:24.534Z,14.58
2023-05-19T06:59:27.290Z,14.60
2023-05-19T07:00:30.088Z,14.59
2023-05-19T07:01:34.418Z,14.59
2023-05-19T07:02:37.590Z,14.62
2023-05-19T07:03:41.019Z,14.63
2023-05-19T07:04:44.743Z,14.65
2023-05-19T07:05:48.510Z,14.70
2023-05-19T07:06:51.424Z,14.76
2023-05-19T07:07:54.591Z,14.76
2023-05-19T07:09:00.095Z,14.75
2023-05-19T07:10:04.634Z,14.73
2023-05-19T07:11:07.867Z,14.71
2023-05-19T07:12:10.895Z,14.65
2023-05-19T07:13:13.763Z,14.60
2023-05-19T07:14:17.002Z,14.57
2023-05-19T07:15:20.119Z,14.52
2023-05-19T07:16:23.006Z,14.53
2023-05-19T07:17:26.281Z,14.53
2023-05-19T07:18:31.963Z,14.51
2023-05-19T07:19:35.210Z,14.48
2023-05-19T07:20:37.921Z,14.48
2023-05-19T07:21:42.557Z,14.48
2023-05-19T07:22:46.208Z,14.46
2023-05-19T07:23:49.096Z,14.43
2023-05-19T07:24:51.826Z,14.43
2023-05-19T07:25:56.320Z,14.41
2023-05-19T07:26:59.361Z,14.40
2023-05-19T07:28:02.480Z,14.42
2023-05-19T07:29:05.324Z,14.44
2023-05-19T07:30:08.486Z,14.47
2023-05-19T07:31:11.253Z,14.45
2023-05-19T07:32:14.274Z,14.49
2023-05-19T07:33:17.452Z,14.53
2023-05-19T07:34:22.107Z,14.56
2023-05-19T07:35:26.654Z,14.56
2023-05-19T07:36:29.429Z,14.56
2023-05-19T07:37:32.163Z,14.56
2023-05-19T07:38:35.233Z,14.56
2023-05-19T07:39:37.957Z,14.54
2023-05-19T07:40:40.843Z,14.58
2023-05-19T07:41:43.652Z,14.60
2023-05-19T07:42:46.427Z,14.60
2023-05-19T07:43:50.042Z,14.59
2023-05-19T07:44:52.857Z,14.60
2023-05-19T07:45:58.675Z,14.61
2023-05-19T07:47:01.607Z,14.67
2023-05-19T07:48:04.777Z,14.68
2023-05-19T07:49:07.579Z,14.70
2023-05-19T07:50:10.431Z,14.75
2023-05-19T07:51:13.360Z,14.77
2023-05-19T07:52:18.241Z,14.79
2023-05-19T07:53:22.696Z,14.81
2023-05-19T07:54:26.180Z,14.85
2023-05-19T07:55:28.919Z,14.88
2023-05-19T07:56:31.672Z,14.94
2023-05-19T07:57:34.426Z,15.00
2023-05-19T07:58:37.221Z,15.04
2023-05-19T07:59:40.219Z,15.06
2023-05-19T08:00:43.226Z,15.09
2023-05-19T08:01:45.950Z,15.14
2023-05-19T08:02:48.899Z,15.21
2023-05-19T08:03:51.929Z,15.27
2023-05-19T08:04:54.997Z,15.31
2023-05-19T08:05:58.057Z,15.36
2023-05-19T08:07:00.848Z,15.39
2023-05-19T08:08:03.898Z,15.38
2023-05-19T08:09:06.713Z,15.33
2023-05-19T08:10:09.681Z,15.22
2023-05-19T08:11:12.563Z,15.09
2023-05-19T08:12:15.504Z,14.98
2023-05-19T08:13:18.293Z,14.87
2023-05-19T08:14:22.921Z,14.78
2023-05-19T08:15:26.621Z,14.69
2023-05-19T08:16:29.703Z,14.61
2023-05-19T08:17:32.491Z,14.53
2023-05-19T08:18:35.328Z,14.47
2023-05-19T08:19:38.124Z,14.43
2023-05-19T08:20:41.142Z,14.41
2023-05-19T08:21:44.855Z,14.47
2023-05-19T08:22:47.636Z,14.58
2023-05-19T08:23:50.624Z,14.71
2023-05-19T08:24:53.424Z,14.83
2023-05-19T08:25:56.450Z,14.93
2023-05-19T08:26:59.468Z,15.02
2023-05-19T08:28:02.346Z,15.13
2023-05-19T08:29:05.133Z,15.23
2023-05-19T08:30:08.284Z,15.32
2023-05-19T08:31:11.289Z,15.39
2023-05-19T08:32:14.235Z,15.47
2023-05-19T08:33:17.498Z,15.53
2023-05-19T08:34:20.808Z,15.57
2023-05-19T08:35:23.780Z,15.59
2023-05-19T08:36:27.693Z,15.63
2023-05-19T08:37:31.985Z,15.68
2023-05-19T08:38:36.029Z,15.72
2023-05-19T08:39:38.765Z,15.75
2023-05-19T08:40:42.234Z,15.80
2023-05-19T08:41:45.024Z,15.85
2023-05-19T08:42:47.884Z,15.88
2023-05-19T08:43:50.777Z,15.91
2023-05-19T08:44:53.473Z,15.94
2023-05-19T08:45:56.551Z,15.94
2023-05-19T08:47:02.850Z,15.87
2023-05-19T08:48:06.434Z,15.75
2023-05-19T08:49:12.168Z,15.61
2023-05-19T08:50:17.311Z,15.47
2023-05-19T08:51:23.200Z,15.34
2023-05-19T08:52:33.073Z,15.24
2023-05-19T08:53:40.683Z,15.15
2023-05-19T08:54:46.970Z,15.07
2023-05-19T08:56:01.468Z,15.00
2023-05-19T08:57:05.612Z,14.92
2023-05-19T08:58:08.765Z,14.87
2023-05-19T08:59:13.302Z,14.84
2023-05-19T09:00:17.015Z,14.88
2023-05-19T09:01:20.465Z,14.98
2023-05-19T09:02:23.825Z,15.10
2023-05-19T09:03:29.134Z,15.20
2023-05-19T09:04:32.342Z,15.28
2023-05-19T09:05:35.704Z,15.36
2023-05-19T09:06:41.109Z,15.43
2023-05-19T09:07:44.988Z,15.52
2023-05-19T09:08:48.320Z,15.60
2023-05-19T09:09:51.080Z,15.68
2023-05-19T09:10:53.852Z,15.74
2023-05-19T09:11:56.749Z,15.80
2023-05-19T09:12:59.776Z,15.87
2023-05-19T09:14:02.558Z,15.90
2023-05-19T09:15:06.021Z,15.96
2023-05-19T09:16:08.909Z,16.00
2023-05-19T09:17:12.234Z,16.05
2023-05-19T09:18:15.334Z,16.10
2023-05-19T09:19:18.189Z,16.14
2023-05-19T09:20:21.080Z,16.15
2023-05-19T09:21:33.270Z,16.09
2023-05-19T09:22:40.906Z,15.98
2023-05-19T09:23:47.143Z,15.86
2023-05-19T09:24:50.014Z,15.76
2023-05-19T09:25:53.426Z,15.67
2023-05-19T09:27:00.443Z,15.58
2023-05-19T09:28:03.626Z,15.51
2023-05-19T09:29:16.498Z,15.47
2023-05-19T09:30:19.777Z,15.44
2023-05-19T09:31:22.609Z,15.44
2023-05-19T09:32:26.792Z,15.39
2023-05-19T09:33:31.059Z,15.33
2023-05-19T09:34:33.794Z,15.30
2023-05-19T09:35:37.115Z,15.26
2023-05-19T09:36:42.657Z,15.23
2023-05-19T09:37:46.326Z,15.20
2023-05-19T09:38:49.352Z,15.17
2023-05-19T09:39:53.528Z,15.12
2023-05-19T09:40:58.018Z,15.09
2023-05-19T09:42:04.535Z,15.07
2023-05-19T09:43:08.091Z,15.08
2023-05-19T09:44:32.779Z,15.07
2023-05-19T09:45:36.136Z,15.08
2023-05-19T09:46:38.997Z,15.07
2023-05-19T09:47:42.234Z,15.08
2023-05-19T09:48:45.474Z,15.07
2023-05-19T09:49:48.291Z,15.08
2023-05-19T09:50:53.288Z,15.06
2023-05-19T09:51:59.418Z,15.03
2023-05-19T09:53:02.194Z,15.02
2023-05-19T09:54:05.065Z,15.01
2023-05-19T09:55:12.704Z,15.00
2023-05-19T09:56:16.132Z,15.01
2023-05-19T09:57:25.090Z,15.01
2023-05-19T09:58:31.317Z,14.98
2023-05-19T09:59:34.816Z,14.97
2023-05-19T10:00:37.987Z,14.96
2023-05-19T10:01:41.685Z,14.97
2023-05-19T10:02:45.726Z,14.99
2023-05-19T10:03:49.181Z,14.98
2023-05-19T10:04:52.472Z,14.94
2023-05-19T10:05:55.845Z,14.89
2023-05-19T10:06:59.845Z,14.85
2023-05-19T10:08:03.338Z,14.82
2023-05-19T10:09:06.228Z,14.80
2023-05-19T10:10:09.653Z,14.80
2023-05-19T10:11:12.482Z,14.83
2023-05-19T10:12:15.415Z,14.83
2023-05-19T10:13:18.566Z,14.82
2023-05-19T10:14:25.407Z,14.83
2023-05-19T10:15:28.274Z,14.84
2023-05-19T10:16:31.773Z,14.81
2023-05-19T10:17:36.019Z,14.78
2023-05-19T10:18:40.252Z,14.74
2023-05-19T10:19:43.968Z,14.73
2023-05-19T10:20:47.706Z,14.74
2023-05-19T10:21:51.077Z,14.79
2023-05-19T10:22:53.913Z,14.80
2023-05-19T10:23:56.698Z,14.79
2023-05-19T10:24:59.461Z,14.81
2023-05-19T10:26:05.099Z,14.78
2023-05-19T10:27:10.288Z,14.76
2023-05-19T10:28:14.808Z,14.74
2023-05-19T10:29:21.797Z,14.72
2023-05-19T10:30:33.432Z,14.71
2023-05-19T10:31:36.873Z,14.69
2023-05-19T10:32:40.867Z,14.66
2023-05-19T10:33:59.624Z,14.68
2023-05-19T10:35:21.406Z,14.68
2023-05-19T10:36:35.505Z,14.67
2023-05-19T10:37:45.023Z,14.63
2023-05-19T10:38:52.598Z,14.58
2023-05-19T10:39:55.999Z,14.57
2023-05-19T10:41:11.791Z,14.54
2023-05-19T10:42:30.052Z,14.51
2023-05-19T10:43:35.891Z,14.51
2023-05-19T10:44:57.386Z,14.48
2023-05-19T10:46:00.325Z,14.44
2023-05-19T10:47:06.372Z,14.41
2023-05-19T10:48:14.352Z,14.39
2023-05-19T10:49:20.739Z,14.38
2023-05-19T10:50:24.034Z,14.36
2023-05-19T10:51:33.564Z,14.29
2023-05-19T10:52:39.988Z,14.25
2023-05-19T10:53:46.465Z,14.21
2023-05-19T10:54:49.626Z,14.17
2023-05-19T10:56:03.970Z,14.10
2023-05-19T10:57:08.325Z,14.07
2023-05-19T10:58:11.512Z,14.06
2023-05-19T10:59:40.483Z,14.04
2023-05-19T11:00:43.612Z,13.98
2023-05-19T11:01:47.187Z,13.93
2023-05-19T11:02:56.375Z,13.89
2023-05-19T11:04:05.011Z,13.86
2023-05-19T11:05:09.638Z,13.85
2023-05-19T11:06:26.506Z,13.83
2023-05-19T11:07:29.980Z,13.80
2023-05-19T11:08:33.852Z,13.79
2023-05-19T11:09:42.970Z,13.75
2023-05-19T11:10:46.471Z,13.70
2023-05-19T11:11:50.462Z,13.68
2023-05-19T11:12:58.186Z,13.66
2023-05-19T11:14:01.357Z,13.66
2023-05-19T11:15:04.342Z,13.63
2023-05-19T11:16:08.425Z,13.62
2023-05-19T11:17:15.752Z,13.62
2023-05-19T11:18:19.425Z,13.61
2023-05-19T11:19:32.090Z,13.62
2023-05-19T11:20:38.894Z,13.63
2023-05-19T11:21:50.396Z,13.63
2023-05-19T11:23:10.171Z,13.62
2023-05-19T11:24:31.848Z,13.62
2023-05-19T11:25:49.812Z,13.64
2023-05-19T11:26:54.789Z,13.65
2023-05-19T11:27:57.987Z,13.67
2023-05-19T11:29:00.979Z,13.69
2023-05-19T11:30:07.693Z,13.72
2023-05-19T11:31:10.865Z,13.74
2023-05-19T11:32:14.091Z,13.76
2023-05-19T11:33:20.017Z,13.78
2023-05-19T11:34:25.983Z,13.81
2023-05-19T11:35:29.580Z,13.82
2023-05-19T11:36:33.222Z,13.84
2023-05-19T11:37:36.786Z,13.89
2023-05-19T11:38:39.614Z,13.91
2023-05-19T11:39:42.345Z,13.91
2023-05-19T11:40:45.433Z,13.91
2023-05-19T11:41:48.141Z,13.89
2023-05-19T11:42:51.212Z,13.87
2023-05-19T11:43:53.974Z,13.86
2023-05-19T11:44:56.774Z,13.87
2023-05-19T11:46:00.953Z,13.88
2023-05-19T11:47:04.480Z,13.89
2023-05-19T11:48:10.994Z,13.91
2023-05-19T11:49:15.096Z,13.93
2023-05-19T11:50:18.105Z,13.96
2023-05-19T11:51:21.681Z,13.99
2023-05-19T11:52:24.837Z,14.03
2023-05-19T11:53:33.257Z,14.07
2023-05-19T11:54:39.314Z,14.11
2023-05-19T11:55:43.600Z,14.17
2023-05-19T11:56:47.507Z,14.18
2023-05-19T11:59:05.097Z,14.23
2023-05-19T12:00:09.485Z,14.26
2023-05-19T12:01:12.300Z,14.28
2023-05-19T12:02:25.150Z,14.32
2023-05-19T12:03:29.782Z,14.36
2023-05-19T12:04:32.833Z,14.40
2023-05-19T12:05:43.660Z,14.44
2023-05-19T12:06:49.082Z,14.52
2023-05-19T12:07:52.458Z,14.57
2023-05-19T12:08:56.413Z,14.63
2023-05-19T12:09:59.880Z,14.69
2023-05-19T12:11:02.652Z,14.75
2023-05-19T12:12:05.557Z,14.80
2023-05-19T12:13:09.989Z,14.85
2023-05-19T12:14:13.203Z,14.89
2023-05-19T12:15:18.767Z,14.94
2023-05-19T12:16:21.596Z,14.99
2023-05-19T12:17:24.499Z,15.04
2023-05-19T12:18:34.092Z,15.08
2023-05-19T12:19:36.984Z,15.11
2023-05-19T12:20:39.777Z,15.14
2023-05-19T12:21:42.608Z,15.19
2023-05-19T12:22:46.075Z,15.22
2023-05-19T12:23:49.387Z,15.25
2023-05-19T12:24:52.844Z,15.28
2023-05-19T12:25:55.798Z,15.32
2023-05-19T12:27:05.729Z,15.35
2023-05-19T12:28:08.474Z,15.40
2023-05-19T12:29:13.101Z,15.45
2023-05-19T12:30:16.728Z,15.50
2023-05-19T12:31:20.559Z,15.53
2023-05-19T12:32:26.907Z,15.54
2023-05-19T12:33:33.483Z,15.54
2023-05-19T12:34:38.335Z,15.56
2023-05-19T12:35:42.258Z,15.55
2023-05-19T12:36:44.987Z,15.54
2023-05-19T12:37:49.214Z,15.52
2023-05-19T12:38:55.218Z,15.49
2023-05-19T12:39:58.417Z,15.48
2023-05-19T12:41:01.207Z,15.49
2023-05-19T12:42:04.441Z,15.49
2023-05-19T12:43:07.961Z,15.48
2023-05-19T12:44:17.556Z,15.43
2023-05-19T12:45:21.435Z,15.39
2023-05-19T12:46:24.203Z,15.35
2023-05-19T12:47:32.567Z,15.33
2023-05-19T12:48:35.420Z,15.33
2023-05-19T12:49:53.274Z,15.32
2023-05-19T12:50:56.887Z,15.31
2023-05-19T12:52:03.046Z,15.27
2023-05-19T12:53:14.265Z,15.26
2023-05-19T12:54:19.470Z,15.25
2023-05-19T12:55:23.234Z,15.25
2023-05-19T12:56:27.160Z,15.25
2023-05-19T12:57:32.481Z,15.22
2023-05-19T12:58:35.292Z,15.18
2023-05-19T12:59:39.048Z,15.18
2023-05-19T13:00:43.653Z,15.20
2023-05-19T13:01:54.955Z,15.15
2023-05-19T13:03:05.736Z,15.09
2023-05-19T13:04:08.968Z,15.05
2023-05-19T13:05:12.061Z,15.02
2023-05-19T13:06:14.793Z,15.04
2023-05-19T13:07:17.495Z,15.05
2023-05-19T13:08:21.671Z,15.02
2023-05-19T13:09:24.614Z,15.02
2023-05-19T13:10:28.178Z,15.01
2023-05-19T13:11:30.856Z,14.99
2023-05-19T13:12:33.676Z,14.95
2023-05-19T13:13:37.070Z,14.93
2023-05-19T13:14:41.960Z,14.88
2023-05-19T13:15:45.479Z,14.81
2023-05-19T13:16:48.288Z,14.77
2023-05-19T13:17:51.687Z,14.73
2023-05-19T13:18:54.937Z,14.69
2023-05-19T13:19:57.897Z,14.64
2023-05-19T13:21:00.641Z,14.60
2023-05-19T13:22:03.695Z,14.55
2023-05-19T13:23:06.757Z,14.51
2023-05-19T13:24:09.680Z,14.49
2023-05-19T13:25:12.479Z,14.46
2023-05-19T13:26:15.500Z,14.44
2023-05-19T13:27:18.379Z,14.44
2023-05-19T13:28:21.169Z,14.42
2023-05-19T13:29:23.975Z,14.41
2023-05-19T13:30:27.178Z,14.42
2023-05-19T13:31:30.032Z,14.42
2023-05-19T13:32:32.914Z,14.43
2023-05-19T13:33:35.653Z,14.42
2023-05-19T13:34:38.511Z,14.38
2023-05-19T13:35:41.395Z,14.34
2023-05-19T13:36:48.228Z,14.30
2023-05-19T13:37:51.043Z,14.28
2023-05-19T13:38:54.272Z,14.27
2023-05-19T13:40:00.158Z,14.26
2023-05-19T13:41:02.970Z,14.24
2023-05-19T13:42:06.398Z,14.23
2023-05-19T13:43:09.826Z,14.22
2023-05-19T13:44:13.021Z,14.22
2023-05-19T13:45:16.277Z,14.29
2023-05-19T13:46:24.248Z,14.40
2023-05-19T13:47:32.888Z,14.54
2023-05-19T13:48:36.214Z,14.65
2023-05-19T13:49:39.166Z,14.76
2023-05-19T13:50:42.602Z,14.84
2023-05-19T13:51:45.444Z,14.92
2023-05-19T13:52:48.243Z,15.00
2023-05-19T13:53:51.251Z,15.06
2023-05-19T13:54:56.919Z,15.12
2023-05-19T13:56:00.528Z,15.17
2023-05-19T13:57:03.212Z,15.20
2023-05-19T13:58:05.962Z,15.25
2023-05-19T13:59:08.653Z,15.28
2023-05-19T14:00:11.668Z,15.30
2023-05-19T14:01:17.470Z,15.31
2023-05-19T14:02:20.379Z,15.32
2023-05-19T14:03:24.862Z,15.34
2023-05-19T14:04:28.195Z,15.35